Time;durP1;ratioP1;P1;durP2;ratioP2;P2;SDS_P1;SDS_P2;PMS_P1;PMS_P2;Temp;Humidity;BMP_temperature;BMP_pressure;BME280_temperature;BME280_humidity;BME280_pressure;Samples;Min_cycle;Max_cycle;Signal;HPM_P1;HPM_P2
2024/03/29 00:01:25;;;;;;;;;;;13.00;65.10;;;;;;5051188;28;19967;-75
2024/03/29 00:03:53;;;;;;;;;;;13.00;65.20;;;;;;5062506;28;19924;-70
2024/03/29 00:06:19;;;;;;;;;;;12.80;65.30;;;;;;5070596;28;19928;-75
2024/03/29 00:08:44;;;;;;;;;;;12.70;66.80;;;;;;5071147;28;19924;-69
2024/03/29 00:11:10;;;;;;;;;;;12.50;67.30;;;;;;5071645;28;19916;-75
2024/03/29 00:13:39;;;;;;;;;;;12.40;67.60;;;;;;5072686;28;19916;-70
2024/03/29 00:16:05;;;;;;;;;;;12.30;68.20;;;;;;5072032;28;19917;-76
2024/03/29 00:18:31;;;;;;;;;;;12.20;68.40;;;;;;5070969;28;19920;-75
2024/03/29 00:20:57;;;;;;;;;;;12.10;68.90;;;;;;5070313;28;20334;-76
2024/03/29 00:23:23;;;;;;;;;;;12.00;69.10;;;;;;5070878;28;20333;-75
2024/03/29 00:25:49;;;;;;;;;;;11.90;69.60;;;;;;5071996;28;19992;-75
2024/03/29 00:28:15;;;;;;;;;;;11.80;69.80;;;;;;5071115;28;20023;-69
2024/03/29 00:30:40;;;;;;;;;;;11.70;70.50;;;;;;5074535;28;19916;-69
2024/03/29 00:33:06;;;;;;;;;;;11.60;70.80;;;;;;5074675;28;19956;-74
2024/03/29 00:35:32;;;;;;;;;;;11.60;70.90;;;;;;5075404;28;19916;-75
2024/03/29 00:37:58;;;;;;;;;;;11.60;71.80;;;;;;5075554;28;19951;-69
2024/03/29 00:40:24;;;;;;;;;;;11.50;71.80;;;;;;5074991;28;19920;-69
2024/03/29 00:42:50;;;;;;;;;;;11.50;71.80;;;;;;5075716;28;19931;-75
2024/03/29 00:45:16;;;;;;;;;;;11.50;71.70;;;;;;5074130;28;20007;-70
2024/03/29 00:47:42;;;;;;;;;;;11.50;71.80;;;;;;5074077;28;20368;-69
2024/03/29 00:50:09;;;;;;;;;;;11.50;71.70;;;;;;5073831;28;19999;-75
2024/03/29 00:52:35;;;;;;;;;;;11.40;71.30;;;;;;5074574;28;19963;-74
2024/03/29 00:55:02;;;;;;;;;;;11.50;71.20;;;;;;5075389;28;20408;-76
2024/03/29 00:57:29;;;;;;;;;;;11.50;71.10;;;;;;5074042;28;19916;-75
2024/03/29 00:59:56;;;;;;;;;;;11.50;70.50;;;;;;5073840;28;19912;-70
2024/03/29 01:02:23;;;;;;;;;;;11.60;70.70;;;;;;5073259;28;19927;-75
2024/03/29 01:04:49;;;;;;;;;;;11.70;69.80;;;;;;5057727;28;19912;-69
2024/03/29 01:07:17;;;;;;;;;;;11.60;70.00;;;;;;5073768;28;20001;-76
2024/03/29 01:09:43;;;;;;;;;;;11.70;70.50;;;;;;5057013;28;20371;-75
2024/03/29 01:12:09;;;;;;;;;;;11.60;70.40;;;;;;5072970;28;20015;-69
2024/03/29 01:14:35;;;;;;;;;;;11.50;70.60;;;;;;5073201;28;19952;-69
2024/03/29 01:17:02;;;;;;;;;;;11.50;71.10;;;;;;5074455;28;20034;-70
2024/03/29 01:19:28;;;;;;;;;;;11.30;71.40;;;;;;5056664;28;19912;-76
2024/03/29 01:21:53;;;;;;;;;;;11.30;71.70;;;;;;5073075;28;20395;-75
2024/03/29 01:24:19;;;;;;;;;;;11.20;71.80;;;;;;5075174;28;20362;-75
2024/03/29 01:26:45;;;;;;;;;;;11.20;71.90;;;;;;5074914;28;20444;-70
2024/03/29 01:29:11;;;;;;;;;;;11.10;71.80;;;;;;5057024;28;19916;-69
2024/03/29 01:31:37;;;;;;;;;;;11.10;72.00;;;;;;5074466;28;20373;-76
2024/03/29 01:34:03;;;;;;;;;;;11.00;71.90;;;;;;5073606;28;20361;-70
2024/03/29 01:36:29;;;;;;;;;;;10.90;71.90;;;;;;5073662;28;19913;-69
2024/03/29 01:38:56;;;;;;;;;;;10.80;72.00;;;;;;5074924;28;20434;-75
2024/03/29 01:41:23;;;;;;;;;;;10.70;73.00;;;;;;5073414;28;20428;-69
2024/03/29 01:43:50;;;;;;;;;;;10.60;71.90;;;;;;5074563;28;19916;-69
2024/03/29 01:46:19;;;;;;;;;;;10.50;72.00;;;;;;5073558;28;20336;-69
2024/03/29 01:48:45;;;;;;;;;;;10.50;72.40;;;;;;5073388;28;20005;-75
2024/03/29 01:51:11;;;;;;;;;;;10.50;72.70;;;;;;5072923;28;19917;-69
2024/03/29 01:53:37;;;;;;;;;;;10.30;72.10;;;;;;5075069;28;19952;-76
2024/03/29 01:56:04;;;;;;;;;;;10.30;72.90;;;;;;5073345;28;19916;-73
2024/03/29 01:58:30;;;;;;;;;;;10.20;72.60;;;;;;5056607;28;20373;-76
2024/03/29 02:00:58;;;;;;;;;;;10.10;73.00;;;;;;5072518;28;19923;-69
2024/03/29 02:03:24;;;;;;;;;;;10.10;72.80;;;;;;5073438;28;19921;-75
2024/03/29 02:05:50;;;;;;;;;;;10.10;72.80;;;;;;5074404;28;20349;-75
2024/03/29 02:08:16;;;;;;;;;;;10.10;72.30;;;;;;5074399;28;19924;-69
2024/03/29 02:10:43;;;;;;;;;;;10.00;72.90;;;;;;5073897;28;20293;-69
2024/03/29 02:13:09;;;;;;;;;;;10.00;72.90;;;;;;5073022;28;20529;-75
2024/03/29 02:15:35;;;;;;;;;;;10.00;74.00;;;;;;5074018;28;19912;-69
2024/03/29 02:18:01;;;;;;;;;;;9.90;73.40;;;;;;5074383;28;19920;-69
2024/03/29 02:20:27;;;;;;;;;;;9.90;73.50;;;;;;5072394;28;20373;-75
2024/03/29 02:23:14;;;;;;;;;;;9.90;73.50;;;;;;5072940;28;19927;-69
2024/03/29 02:25:40;;;;;;;;;;;9.90;73.50;;;;;;5073896;28;19913;-69
2024/03/29 02:28:06;;;;;;;;;;;9.80;73.80;;;;;;5056126;28;20422;-75
2024/03/29 02:30:32;;;;;;;;;;;9.80;73.10;;;;;;5072134;28;19947;-69
2024/03/29 02:33:01;;;;;;;;;;;9.80;73.50;;;;;;5074095;28;19920;-75
2024/03/29 02:35:27;;;;;;;;;;;9.80;73.50;;;;;;5072826;28;19923;-71
2024/03/29 02:37:53;;;;;;;;;;;9.80;72.90;;;;;;5072497;28;19964;-76
2024/03/29 02:40:19;;;;;;;;;;;9.70;73.10;;;;;;5073166;28;19958;-69
2024/03/29 02:42:47;;;;;;;;;;;9.70;73.00;;;;;;5072605;28;19929;-76
2024/03/29 02:45:13;;;;;;;;;;;9.60;73.50;;;;;;5071938;28;19918;-76
2024/03/29 02:47:39;;;;;;;;;;;9.60;73.50;;;;;;5073132;28;19924;-74
2024/03/29 02:50:07;;;;;;;;;;;9.50;73.50;;;;;;5071260;28;19912;-70
2024/03/29 02:52:33;;;;;;;;;;;9.40;73.80;;;;;;5054842;28;19931;-69
2024/03/29 02:54:59;;;;;;;;;;;9.40;73.80;;;;;;5055240;28;20377;-69
2024/03/29 02:57:25;;;;;;;;;;;9.40;73.60;;;;;;5072637;28;19927;-76
2024/03/29 02:59:51;;;;;;;;;;;9.30;73.70;;;;;;5072876;28;20007;-69
2024/03/29 03:02:17;;;;;;;;;;;9.30;73.80;;;;;;5072369;28;19920;-69
2024/03/29 03:04:43;;;;;;;;;;;9.20;73.80;;;;;;5072738;28;20384;-75
2024/03/29 03:12:39;;;;;;;;;;;9.20;74.00;;;;;;5071919;28;20305;-69
2024/03/29 03:15:05;;;;;;;;;;;9.10;74.10;;;;;;5072816;28;19912;-69
2024/03/29 03:17:31;;;;;;;;;;;9.10;73.90;;;;;;5072634;28;20093;-75
2024/03/29 03:19:57;;;;;;;;;;;9.00;73.30;;;;;;5071087;28;20288;-69
2024/03/29 03:22:24;;;;;;;;;;;9.00;74.00;;;;;;5070902;28;19920;-75
2024/03/29 03:24:49;;;;;;;;;;;9.00;74.00;;;;;;5054698;28;19912;-69
2024/03/29 03:27:15;;;;;;;;;;;9.00;74.30;;;;;;5071282;28;19974;-69
2024/03/29 03:29:41;;;;;;;;;;;9.00;74.30;;;;;;5071421;28;19916;-69
2024/03/29 03:32:07;;;;;;;;;;;9.10;74.30;;;;;;5053955;28;19965;-75
2024/03/29 03:34:34;;;;;;;;;;;9.10;73.80;;;;;;5071274;28;19913;-69
2024/03/29 03:37:00;;;;;;;;;;;9.20;73.50;;;;;;5071052;28;19920;-69
2024/03/29 03:39:25;;;;;;;;;;;9.10;72.80;;;;;;5054661;28;19979;-69
2024/03/29 03:41:51;;;;;;;;;;;9.20;74.00;;;;;;5070050;28;20372;-69
2024/03/29 03:44:18;;;;;;;;;;;9.20;74.60;;;;;;5070390;28;19938;-74
2024/03/29 03:46:44;;;;;;;;;;;9.20;74.70;;;;;;5070499;28;20031;-76
2024/03/29 03:49:09;;;;;;;;;;;9.30;75.20;;;;;;5071841;28;20015;-75
2024/03/29 03:51:35;;;;;;;;;;;9.30;75.50;;;;;;5071216;28;19977;-75
2024/03/29 03:54:01;;;;;;;;;;;9.30;75.70;;;;;;5071546;28;20003;-75
2024/03/29 03:56:27;;;;;;;;;;;9.40;75.60;;;;;;5070545;28;19912;-69
2024/03/29 03:58:53;;;;;;;;;;;9.40;75.60;;;;;;5070938;28;19926;-76
2024/03/29 04:01:19;;;;;;;;;;;9.40;75.70;;;;;;5071434;28;20007;-75
2024/03/29 04:03:45;;;;;;;;;;;9.40;75.70;;;;;;5069926;28;19920;-75
2024/03/29 04:06:10;;;;;;;;;;;9.40;75.70;;;;;;5053659;28;19912;-69
2024/03/29 04:08:36;;;;;;;;;;;9.40;75.90;;;;;;5071996;28;19920;-70
2024/03/29 04:11:21;;;;;;;;;;;9.40;75.80;;;;;;5070227;28;19927;-69
2024/03/29 04:13:47;;;;;;;;;;;9.50;75.60;;;;;;5071298;28;19921;-75
2024/03/29 04:16:13;;;;;;;;;;;9.50;75.60;;;;;;5071489;28;19913;-69
2024/03/29 04:18:39;;;;;;;;;;;9.50;75.60;;;;;;5071418;28;19920;-76
2024/03/29 04:21:05;;;;;;;;;;;9.60;75.40;;;;;;5071048;28;19978;-70
2024/03/29 04:23:31;;;;;;;;;;;9.50;75.30;;;;;;5070466;28;19923;-69
2024/03/29 04:25:58;;;;;;;;;;;9.60;75.30;;;;;;5071236;28;19970;-76
2024/03/29 04:28:24;;;;;;;;;;;9.50;75.10;;;;;;5070398;28;20019;-75
2024/03/29 04:31:09;;;;;;;;;;;9.60;75.00;;;;;;5069310;28;19920;-69
2024/03/29 04:33:35;;;;;;;;;;;9.50;74.80;;;;;;5071837;28;19923;-69
2024/03/29 04:36:03;;;;;;;;;;;9.60;74.90;;;;;;5071205;28;20003;-75
2024/03/29 04:38:30;;;;;;;;;;;9.50;74.80;;;;;;5070593;28;19916;-75
2024/03/29 04:40:57;;;;;;;;;;;9.60;74.60;;;;;;5069509;28;19920;-69
2024/03/29 04:43:25;;;;;;;;;;;9.50;74.60;;;;;;5070786;28;19920;-75
2024/03/29 04:45:51;;;;;;;;;;;9.60;74.50;;;;;;5070059;28;20086;-69
2024/03/29 04:48:17;;;;;;;;;;;9.60;74.50;;;;;;5070576;28;19923;-69
2024/03/29 04:50:43;;;;;;;;;;;9.60;74.40;;;;;;5070926;28;19925;-69
2024/03/29 04:53:09;;;;;;;;;;;9.50;74.40;;;;;;5070262;28;20344;-75
2024/03/29 04:55:35;;;;;;;;;;;9.50;74.50;;;;;;5071003;28;19923;-69
2024/03/29 04:58:02;;;;;;;;;;;9.50;73.90;;;;;;5071561;28;19931;-69
2024/03/29 05:00:28;;;;;;;;;;;9.50;74.40;;;;;;5069551;28;20185;-75
2024/03/29 05:02:54;;;;;;;;;;;9.50;74.50;;;;;;5071515;28;19916;-76
2024/03/29 05:05:20;;;;;;;;;;;9.50;74.30;;;;;;5069954;28;19917;-76
2024/03/29 05:07:46;;;;;;;;;;;9.50;74.40;;;;;;5069830;28;19917;-75
2024/03/29 05:10:12;;;;;;;;;;;9.50;74.50;;;;;;5070682;28;19969;-69
2024/03/29 05:12:38;;;;;;;;;;;9.50;74.50;;;;;;5071014;28;19916;-69
2024/03/29 05:15:05;;;;;;;;;;;9.50;73.70;;;;;;5070740;28;20290;-69
2024/03/29 05:17:31;;;;;;;;;;;9.50;74.00;;;;;;5073600;28;20019;-76
2024/03/29 05:19:56;;;;;;;;;;;9.60;74.10;;;;;;5073330;28;19943;-69
2024/03/29 05:22:22;;;;;;;;;;;9.50;74.00;;;;;;5074010;28;19970;-76
2024/03/29 05:24:52;;;;;;;;;;;9.50;74.00;;;;;;5074172;28;19926;-76
2024/03/29 05:27:18;;;;;;;;;;;9.60;73.90;;;;;;5074533;28;20437;-69
2024/03/29 05:29:44;;;;;;;;;;;9.70;73.70;;;;;;5074257;28;19924;-69
2024/03/29 05:32:10;;;;;;;;;;;9.80;73.20;;;;;;5072501;28;20388;-76
2024/03/29 05:34:36;;;;;;;;;;;9.90;73.00;;;;;;5073064;28;20570;-75
2024/03/29 05:37:02;;;;;;;;;;;10.00;72.90;;;;;;5072773;28;19942;-75
2024/03/29 05:39:28;;;;;;;;;;;10.10;72.80;;;;;;5074307;28;20003;-74
2024/03/29 05:41:54;;;;;;;;;;;10.10;72.70;;;;;;5055536;28;20442;-75
2024/03/29 05:44:19;;;;;;;;;;;10.20;72.50;;;;;;5072670;28;20015;-75
2024/03/29 05:46:45;;;;;;;;;;;10.30;72.30;;;;;;5074245;28;20408;-69
2024/03/29 05:49:11;;;;;;;;;;;10.40;71.80;;;;;;5073841;28;20343;-75
2024/03/29 05:51:37;;;;;;;;;;;10.50;71.50;;;;;;5072274;28;19917;-69
2024/03/29 05:54:03;;;;;;;;;;;10.60;71.30;;;;;;5073868;28;19920;-74
2024/03/29 05:56:30;;;;;;;;;;;10.60;70.80;;;;;;5073645;28;19912;-75
2024/03/29 05:58:56;;;;;;;;;;;10.70;70.50;;;;;;5072722;28;19924;-69
2024/03/29 06:04:15;;;;;;;;;;;10.80;69.30;;;;;;5072992;28;20372;-71
2024/03/29 06:06:41;;;;;;;;;;;10.90;69.80;;;;;;5073541;28;19927;-69
2024/03/29 06:09:07;;;;;;;;;;;11.00;69.60;;;;;;5072317;28;19920;-69
2024/03/29 06:11:33;;;;;;;;;;;11.00;69.40;;;;;;5071922;28;20219;-76
2024/03/29 06:19:10;;;;;;;;;;;11.20;68.60;;;;;;5072507;28;19927;-75
2024/03/29 06:21:40;;;;;;;;;;;11.30;68.20;;;;;;5073035;28;19916;-75
2024/03/29 06:24:07;;;;;;;;;;;11.40;68.00;;;;;;5071934;28;19923;-75
2024/03/29 06:26:34;;;;;;;;;;;11.50;67.60;;;;;;5071407;28;19912;-69
2024/03/29 06:29:18;;;;;;;;;;;11.60;67.30;;;;;;5071934;28;19916;-76
2024/03/29 06:31:44;;;;;;;;;;;11.80;67.00;;;;;;5072599;28;19928;-71
2024/03/29 06:34:10;;;;;;;;;;;11.80;66.80;;;;;;5073325;28;20284;-75
2024/03/29 06:36:37;;;;;;;;;;;11.90;66.90;;;;;;5073078;28;20090;-75
2024/03/29 06:39:04;;;;;;;;;;;12.00;67.50;;;;;;5072999;28;19912;-75
2024/03/29 06:41:29;;;;;;;;;;;12.20;66.20;;;;;;5072306;28;19916;-69
2024/03/29 06:43:56;;;;;;;;;;;12.30;65.70;;;;;;5071455;28;19920;-76
2024/03/29 06:46:22;;;;;;;;;;;12.40;65.50;;;;;;5071670;28;19920;-75
2024/03/29 06:48:49;;;;;;;;;;;12.60;65.20;;;;;;5071361;28;20065;-75
2024/03/29 06:51:15;;;;;;;;;;;12.70;64.90;;;;;;5072266;28;19916;-75
2024/03/29 06:53:40;;;;;;;;;;;12.70;64.50;;;;;;5073065;28;19916;-69
2024/03/29 06:56:07;;;;;;;;;;;12.80;64.20;;;;;;5071543;28;20011;-75
2024/03/29 06:58:32;;;;;;;;;;;12.90;63.80;;;;;;5072785;28;19917;-75
2024/03/29 07:00:58;;;;;;;;;;;12.90;63.80;;;;;;5070594;28;19916;-75
2024/03/29 07:03:24;;;;;;;;;;;13.00;63.60;;;;;;5072853;28;19924;-70
2024/03/29 07:05:50;;;;;;;;;;;13.00;62.60;;;;;;5072239;28;19912;-75
2024/03/29 07:08:16;;;;;;;;;;;13.10;63.20;;;;;;5072764;28;20019;-69
2024/03/29 07:10:42;;;;;;;;;;;13.10;63.00;;;;;;5053961;28;19916;-76
2024/03/29 07:13:09;;;;;;;;;;;13.20;63.20;;;;;;5072577;28;20288;-69
2024/03/29 07:15:35;;;;;;;;;;;13.10;63.10;;;;;;5070819;28;19919;-70
2024/03/29 07:18:05;;;;;;;;;;;13.10;62.70;;;;;;5058613;28;19934;-76
2024/03/29 07:20:30;;;;;;;;;;;13.20;63.20;;;;;;5065089;28;20357;-76
2024/03/29 07:22:56;;;;;;;;;;;13.30;63.10;;;;;;5067883;28;19920;-76
2024/03/29 07:25:23;;;;;;;;;;;13.40;62.00;;;;;;5059384;28;19922;-75
2024/03/29 07:27:49;;;;;;;;;;;13.60;62.20;;;;;;5068477;28;19956;-75
2024/03/29 07:30:16;;;;;;;;;;;13.80;61.60;;;;;;5071702;28;20301;-76
2024/03/29 07:32:42;;;;;;;;;;;14.00;60.80;;;;;;5051500;28;19925;-75
2024/03/29 07:35:08;;;;;;;;;;;14.20;59.90;;;;;;5061742;28;19916;-75
2024/03/29 07:37:34;;;;;;;;;;;14.40;60.10;;;;;;5064488;28;19947;-69
2024/03/29 07:40:00;;;;;;;;;;;14.60;60.60;;;;;;5052519;28;19916;-70
2024/03/29 07:42:26;;;;;;;;;;;14.70;60.00;;;;;;5071281;28;19920;-76
2024/03/29 07:44:52;;;;;;;;;;;14.70;59.40;;;;;;5070347;28;20448;-75
2024/03/29 07:47:18;;;;;;;;;;;14.80;60.10;;;;;;5067598;28;19952;-70
2024/03/29 07:49:45;;;;;;;;;;;15.10;59.70;;;;;;5085161;28;19926;-75
2024/03/29 07:52:11;;;;;;;;;;;15.20;59.00;;;;;;5065128;28;19984;-70
2024/03/29 07:54:38;;;;;;;;;;;15.30;58.30;;;;;;5056834;28;19916;-75
2024/03/29 07:57:05;;;;;;;;;;;15.40;58.00;;;;;;5070962;28;19955;-76
2024/03/29 07:59:31;;;;;;;;;;;15.90;56.40;;;;;;5071837;28;19921;-70
2024/03/29 08:01:58;;;;;;;;;;;16.40;57.70;;;;;;5044062;28;19921;-70
2024/03/29 08:04:23;;;;;;;;;;;16.90;55.30;;;;;;5070987;28;20336;-76
2024/03/29 08:06:52;;;;;;;;;;;17.50;55.60;;;;;;5069469;28;19946;-70
2024/03/29 08:09:18;;;;;;;;;;;18.00;54.80;;;;;;5065540;28;19923;-76
2024/03/29 08:11:43;;;;;;;;;;;18.80;53.80;;;;;;5050471;28;19929;-69
2024/03/29 08:14:09;;;;;;;;;;;19.20;51.80;;;;;;5053293;28;20007;-70
2024/03/29 08:16:35;;;;;;;;;;;19.80;50.50;;;;;;5050115;28;19917;-70
2024/03/29 08:19:02;;;;;;;;;;;20.60;48.80;;;;;;5049441;28;19920;-70
2024/03/29 08:21:28;;;;;;;;;;;21.00;47.70;;;;;;5062275;28;19924;-75
2024/03/29 08:23:56;;;;;;;;;;;21.40;44.90;;;;;;5069507;28;19921;-70
2024/03/29 08:26:22;;;;;;;;;;;21.60;44.50;;;;;;5062818;28;19924;-75
2024/03/29 08:28:48;;;;;;;;;;;22.10;42.40;;;;;;5064175;28;19925;-76
2024/03/29 08:31:15;;;;;;;;;;;22.90;38.60;;;;;;5071064;28;20335;-75
2024/03/29 08:33:43;;;;;;;;;;;23.70;38.80;;;;;;5053518;28;19919;-70
2024/03/29 08:36:10;;;;;;;;;;;24.10;38.80;;;;;;5069387;28;19927;-76
2024/03/29 08:38:41;;;;;;;;;;;24.40;37.80;;;;;;5068477;28;19916;-70
2024/03/29 08:41:07;;;;;;;;;;;24.40;36.60;;;;;;5069550;28;20405;-70
2024/03/29 08:43:33;;;;;;;;;;;24.70;35.80;;;;;;5062630;28;19925;-76
2024/03/29 08:46:00;;;;;;;;;;;25.00;36.50;;;;;;5061834;28;19962;-72
2024/03/29 08:48:27;;;;;;;;;;;25.30;35.80;;;;;;5068225;28;19927;-70
2024/03/29 08:50:53;;;;;;;;;;;25.40;34.80;;;;;;5048623;28;19975;-70
2024/03/29 08:53:19;;;;;;;;;;;25.40;34.20;;;;;;5070251;28;19920;-70
2024/03/29 08:55:48;;;;;;;;;;;26.20;32.10;;;;;;5060580;28;19926;-76
2024/03/29 08:58:14;;;;;;;;;;;26.00;31.70;;;;;;5073323;28;20409;-70
2024/03/29 09:00:40;;;;;;;;;;;25.80;31.40;;;;;;5066641;28;19920;-70
2024/03/29 09:03:06;;;;;;;;;;;25.90;31.90;;;;;;5074651;28;20292;-70
2024/03/29 09:05:31;;;;;;;;;;;26.10;32.10;;;;;;5071528;28;20027;-70
2024/03/29 09:07:57;;;;;;;;;;;26.40;30.80;;;;;;5054330;28;19927;-75
2024/03/29 09:13:10;;;;;;;;;;;25.90;31.00;;;;;;5069335;28;19924;-75
2024/03/29 09:15:37;;;;;;;;;;;25.80;30.30;;;;;;5074308;28;19912;-76
2024/03/29 09:18:09;;;;;;;;;;;25.80;30.60;;;;;;5061975;28;19924;-76
2024/03/29 09:20:36;;;;;;;;;;;25.90;31.30;;;;;;5068655;28;19943;-71
2024/03/29 09:23:02;;;;;;;;;;;26.00;30.70;;;;;;5073473;28;20284;-70
2024/03/29 09:25:29;;;;;;;;;;;25.60;30.90;;;;;;5070621;28;20389;-73
2024/03/29 09:27:55;;;;;;;;;;;25.40;32.70;;;;;;5073228;28;19966;-71
2024/03/29 09:30:22;;;;;;;;;;;25.80;31.40;;;;;;5062750;28;20120;-70
2024/03/29 09:32:49;;;;;;;;;;;26.60;32.00;;;;;;5073173;28;19921;-70
2024/03/29 09:35:17;;;;;;;;;;;27.40;29.70;;;;;;5068433;28;19977;-75
2024/03/29 09:37:43;;;;;;;;;;;27.50;28.70;;;;;;5063817;28;19927;-75
2024/03/29 09:40:10;;;;;;;;;;;27.30;29.30;;;;;;5067123;28;19916;-76
2024/03/29 09:42:38;;;;;;;;;;;26.90;29.30;;;;;;5050950;28;19924;-71
2024/03/29 09:45:05;;;;;;;;;;;26.60;29.60;;;;;;5052755;28;20373;-75
2024/03/29 09:47:32;;;;;;;;;;;26.30;29.90;;;;;;5069352;28;20378;-75
2024/03/29 09:50:17;;;;;;;;;;;25.90;30.30;;;;;;5058300;28;19916;-75
2024/03/29 09:52:43;;;;;;;;;;;25.90;30.70;;;;;;5069332;28;19920;-70
2024/03/29 09:55:09;;;;;;;;;;;25.50;30.80;;;;;;5069994;28;19917;-71
2024/03/29 09:57:36;;;;;;;;;;;25.00;32.50;;;;;;5072353;28;20444;-72
2024/03/29 10:00:04;;;;;;;;;;;25.00;33.10;;;;;;5065275;28;19921;-71
2024/03/29 10:02:31;;;;;;;;;;;25.00;33.70;;;;;;5046050;28;20023;-76
2024/03/29 10:04:57;;;;;;;;;;;25.20;33.20;;;;;;5052356;28;20335;-70
2024/03/29 10:07:25;;;;;;;;;;;25.40;32.30;;;;;;5037401;28;20342;-76
2024/03/29 10:09:52;;;;;;;;;;;25.20;32.90;;;;;;5037697;28;19917;-76
2024/03/29 10:12:18;;;;;;;;;;;24.60;35.00;;;;;;5049464;28;20294;-75
2024/03/29 10:14:48;;;;;;;;;;;24.30;35.50;;;;;;5047024;28;19917;-76
2024/03/29 10:17:33;;;;;;;;;;;24.20;35.00;;;;;;5051987;28;20346;-76
2024/03/29 10:20:01;;;;;;;;;;;23.80;33.60;;;;;;5052283;28;20284;-75
2024/03/29 10:22:27;;;;;;;;;;;23.50;36.20;;;;;;5068166;28;19999;-70
2024/03/29 10:24:53;;;;;;;;;;;23.30;36.30;;;;;;5052303;28;20011;-76
2024/03/29 10:27:19;;;;;;;;;;;23.00;37.00;;;;;;5053279;28;19990;-70
2024/03/29 10:29:44;;;;;;;;;;;22.60;37.60;;;;;;5053096;28;20384;-70
2024/03/29 10:32:10;;;;;;;;;;;22.20;37.60;;;;;;5062623;28;19928;-76
2024/03/29 10:34:37;;;;;;;;;;;21.70;38.60;;;;;;5051805;28;20140;-76
2024/03/29 10:37:03;;;;;;;;;;;21.40;39.80;;;;;;5059391;28;19920;-70
2024/03/29 10:39:31;;;;;;;;;;;21.10;40.20;;;;;;5071526;28;19912;-76
2024/03/29 10:41:58;;;;;;;;;;;21.00;40.10;;;;;;5069468;28;20369;-70
2024/03/29 10:44:24;;;;;;;;;;;20.80;40.80;;;;;;5071775;28;19913;-76
2024/03/29 10:46:51;;;;;;;;;;;20.60;41.70;;;;;;5071570;28;20392;-76
2024/03/29 10:49:17;;;;;;;;;;;20.50;41.10;;;;;;5071609;28;19966;-76
2024/03/29 10:51:43;;;;;;;;;;;20.30;41.80;;;;;;5054373;28;20023;-76
2024/03/29 10:54:11;;;;;;;;;;;20.40;43.40;;;;;;5072544;28;20417;-69
2024/03/29 10:56:37;;;;;;;;;;;20.40;43.10;;;;;;5066500;28;19921;-70
2024/03/29 10:59:28;;;;;;;;;;;20.50;41.70;;;;;;5065622;28;19920;-71
2024/03/29 11:02:23;;;;;;;;;;;20.40;41.70;;;;;;5066221;28;19919;-70
2024/03/29 11:04:49;;;;;;;;;;;20.30;41.90;;;;;;5067814;28;19916;-70
2024/03/29 11:07:20;;;;;;;;;;;20.40;43.10;;;;;;5059475;28;19921;-71
2024/03/29 11:09:50;;;;;;;;;;;20.40;43.40;;;;;;5050589;28;20003;-70
2024/03/29 11:12:17;;;;;;;;;;;20.70;43.40;;;;;;5061520;28;20417;-70
2024/03/29 11:17:31;;;;;;;;;;;21.10;41.70;;;;;;5068719;28;19932;-76
2024/03/29 11:19:59;;;;;;;;;;;21.30;41.40;;;;;;5057058;28;19916;-76
2024/03/29 11:22:25;;;;;;;;;;;21.20;42.90;;;;;;5051541;28;20547;-72
2024/03/29 11:24:51;;;;;;;;;;;21.10;39.30;;;;;;5055772;28;20361;-70
2024/03/29 11:27:19;;;;;;;;;;;20.90;41.60;;;;;;5066203;28;19921;-69
2024/03/29 11:29:47;;;;;;;;;;;20.90;40.60;;;;;;5049464;28;19999;-69
2024/03/29 11:32:14;;;;;;;;;;;21.20;41.40;;;;;;5051662;28;20314;-69
2024/03/29 11:34:59;;;;;;;;;;;21.30;40.80;;;;;;5064760;28;19925;-69
2024/03/29 11:37:30;;;;;;;;;;;21.50;39.50;;;;;;5072113;28;19973;-76
2024/03/29 11:39:58;;;;;;;;;;;21.50;38.80;;;;;;5060676;28;19952;-70
2024/03/29 11:43:02;;;;;;;;;;;21.90;40.90;;;;;;5051659;28;19921;-74
2024/03/29 11:45:28;;;;;;;;;;;21.80;37.60;;;;;;5051823;28;20637;-69
2024/03/29 11:47:55;;;;;;;;;;;21.90;38.60;;;;;;5050726;28;19921;-76
2024/03/29 11:50:21;;;;;;;;;;;21.80;38.60;;;;;;5056782;28;19912;-71
2024/03/29 11:52:47;;;;;;;;;;;22.10;39.40;;;;;;5070359;28;20015;-70
2024/03/29 11:55:15;;;;;;;;;;;22.10;37.10;;;;;;5070292;28;19917;-70
2024/03/29 11:57:40;;;;;;;;;;;22.10;38.30;;;;;;5061530;28;19958;-73
2024/03/29 12:00:07;;;;;;;;;;;22.00;37.70;;;;;;5061052;28;20428;-70
2024/03/29 12:02:33;;;;;;;;;;;21.90;38.00;;;;;;5052873;28;19932;-70
2024/03/29 12:04:59;;;;;;;;;;;21.80;38.50;;;;;;5069384;28;20010;-70
2024/03/29 12:07:25;;;;;;;;;;;21.80;39.00;;;;;;5045209;28;19924;-76
2024/03/29 12:09:51;;;;;;;;;;;21.90;38.10;;;;;;5063854;28;19916;-70
2024/03/29 12:12:17;;;;;;;;;;;22.00;38.80;;;;;;5045855;28;19928;-76
2024/03/29 12:14:43;;;;;;;;;;;21.70;37.90;;;;;;5069495;28;19977;-70
2024/03/29 12:17:11;;;;;;;;;;;21.40;38.10;;;;;;5057490;28;19921;-69
2024/03/29 12:19:41;;;;;;;;;;;21.20;39.10;;;;;;5066251;28;20374;-76
2024/03/29 12:22:07;;;;;;;;;;;21.10;39.10;;;;;;5061884;28;19973;-76
2024/03/29 12:24:33;;;;;;;;;;;20.90;40.10;;;;;;5059985;28;19921;-70
2024/03/29 12:26:59;;;;;;;;;;;20.90;39.90;;;;;;5072471;28;19920;-76
2024/03/29 12:29:26;;;;;;;;;;;20.70;40.00;;;;;;5066636;28;20340;-70
2024/03/29 12:32:10;;;;;;;;;;;20.70;40.80;;;;;;5051205;28;19935;-70
2024/03/29 12:34:37;;;;;;;;;;;20.60;40.50;;;;;;5062309;28;20386;-76
2024/03/29 12:37:04;;;;;;;;;;;20.60;40.20;;;;;;5074845;28;20359;-70
2024/03/29 12:39:33;;;;;;;;;;;20.60;41.30;;;;;;5066029;28;19956;-70
2024/03/29 12:42:00;;;;;;;;;;;20.60;41.50;;;;;;5067691;28;20021;-70
2024/03/29 12:44:27;;;;;;;;;;;20.50;40.90;;;;;;5073358;28;19912;-70
2024/03/29 12:46:52;;;;;;;;;;;20.50;41.40;;;;;;5057014;28;19936;-76
2024/03/29 12:49:19;;;;;;;;;;;20.50;42.40;;;;;;5073586;28;19916;-75
2024/03/29 12:51:45;;;;;;;;;;;20.50;42.10;;;;;;5060075;28;19921;-76
2024/03/29 12:54:10;;;;;;;;;;;20.40;43.00;;;;;;5069055;28;19966;-70
2024/03/29 12:56:38;;;;;;;;;;;20.40;41.40;;;;;;5065554;28;19916;-76
2024/03/29 12:59:04;;;;;;;;;;;20.30;41.10;;;;;;5060427;28;19943;-76
2024/03/29 13:01:30;;;;;;;;;;;20.30;40.30;;;;;;5054606;28;19943;-76
2024/03/29 13:03:55;;;;;;;;;;;20.30;41.10;;;;;;5073363;28;19991;-70
2024/03/29 13:06:21;;;;;;;;;;;20.40;42.00;;;;;;5090314;28;19999;-76
2024/03/29 13:08:49;;;;;;;;;;;20.60;40.80;;;;;;5073583;28;19962;-70
2024/03/29 13:11:15;;;;;;;;;;;21.20;40.90;;;;;;5073081;28;19924;-70
2024/03/29 13:13:41;;;;;;;;;;;21.80;39.40;;;;;;5074708;28;20274;-70
2024/03/29 13:16:07;;;;;;;;;;;22.00;38.80;;;;;;5074475;28;19987;-75
2024/03/29 13:18:33;;;;;;;;;;;22.20;37.60;;;;;;5056931;28;19927;-70
2024/03/29 13:21:02;;;;;;;;;;;22.30;36.20;;;;;;5056003;28;19923;-75
2024/03/29 13:23:28;;;;;;;;;;;22.50;36.30;;;;;;5074976;28;19928;-76
2024/03/29 13:25:56;;;;;;;;;;;22.70;36.10;;;;;;5073080;28;20332;-74
2024/03/29 13:28:22;;;;;;;;;;;22.80;35.60;;;;;;5074896;28;19921;-76
2024/03/29 13:30:51;;;;;;;;;;;23.00;34.70;;;;;;5073847;28;20032;-70
2024/03/29 13:33:17;;;;;;;;;;;23.00;36.20;;;;;;5056944;28;19924;-70
2024/03/29 13:35:45;;;;;;;;;;;23.10;35.90;;;;;;5072739;28;19971;-76
2024/03/29 13:38:11;;;;;;;;;;;23.20;35.20;;;;;;5072108;28;20026;-76
2024/03/29 13:40:37;;;;;;;;;;;23.20;35.70;;;;;;5072439;28;19917;-70
2024/03/29 13:43:03;;;;;;;;;;;23.00;33.90;;;;;;5074552;28;19921;-76
2024/03/29 13:45:29;;;;;;;;;;;22.80;33.40;;;;;;5073929;28;19923;-76
2024/03/29 13:47:55;;;;;;;;;;;22.70;33.70;;;;;;5072776;28;19920;-71
2024/03/29 13:50:21;;;;;;;;;;;22.90;35.20;;;;;;5073111;28;20412;-76
2024/03/29 13:52:47;;;;;;;;;;;23.20;34.00;;;;;;5057989;28;19925;-71
2024/03/29 13:55:13;;;;;;;;;;;23.60;32.40;;;;;;5072260;28;19916;-75
2024/03/29 13:57:40;;;;;;;;;;;24.40;31.60;;;;;;5073706;28;19928;-70
2024/03/29 14:00:07;;;;;;;;;;;24.60;28.70;;;;;;5066500;28;19920;-76
2024/03/29 14:02:33;;;;;;;;;;;24.70;29.80;;;;;;5074050;28;20361;-76
2024/03/29 14:04:59;;;;;;;;;;;24.70;29.90;;;;;;5072321;28;19913;-70
2024/03/29 14:07:25;;;;;;;;;;;25.40;28.40;;;;;;5057063;28;20019;-72
2024/03/29 14:09:51;;;;;;;;;;;26.00;27.70;;;;;;5052186;28;20011;-76
2024/03/29 14:12:18;;;;;;;;;;;26.40;26.00;;;;;;5051516;28;19966;-76
2024/03/29 14:14:48;;;;;;;;;;;27.10;25.90;;;;;;5051418;28;19916;-70
2024/03/29 14:17:14;;;;;;;;;;;27.90;24.70;;;;;;5052117;28;19921;-75
2024/03/29 14:19:40;;;;;;;;;;;28.90;23.50;;;;;;5070215;28;19913;-75
2024/03/29 14:22:06;;;;;;;;;;;29.60;22.60;;;;;;5071410;28;19927;-70
2024/03/29 14:24:35;;;;;;;;;;;28.70;23.30;;;;;;5071719;28;19920;-70
2024/03/29 14:27:03;;;;;;;;;;;27.80;22.80;;;;;;5073136;28;19943;-75
2024/03/29 14:29:49;;;;;;;;;;;26.70;24.80;;;;;;5072989;28;20374;-76
2024/03/29 14:32:15;;;;;;;;;;;26.30;25.70;;;;;;5071458;28;19982;-76
2024/03/29 14:34:46;;;;;;;;;;;26.80;24.80;;;;;;5073437;28;19912;-70
2024/03/29 14:37:15;;;;;;;;;;;27.30;24.00;;;;;;5073164;28;19927;-70
2024/03/29 14:39:42;;;;;;;;;;;27.10;25.10;;;;;;5071371;28;19912;-75